Time;durP1;ratioP1;P1;durP2;ratioP2;P2;SDS_P1;SDS_P2;PMS_P1;PMS_P2;Temp;Humidity;BMP_temperature;BMP_pressure;BME280_temperature;BME280_humidity;BME280_pressure;Samples;Min_cycle;Max_cycle;Signal;HPM_P1;HPM_P2
2021/10/02 00:41:34;;;;;;;78.27;15.20;;;9.80;99.90;;;;;;4105313;28;20038;-64
2021/10/02 00:45:55;;;;;;;49.57;15.97;;;9.80;99.90;;;;;;4107877;28;20097;-63
2021/10/02 00:47:58;;;;;;;57.67;16.43;;;9.80;99.90;;;;;;4107193;28;20105;-64
2021/10/02 00:50:00;;;;;;;49.23;15.73;;;9.80;99.90;;;;;;4107847;28;20630;-64
2021/10/02 00:52:02;;;;;;;42.53;15.37;;;9.70;99.90;;;;;;4107139;28;20525;-64
2021/10/02 00:54:03;;;;;;;55.73;16.33;;;9.80;99.90;;;;;;4108502;28;20427;-64
2021/10/02 00:56:04;;;;;;;39.90;14.73;;;9.80;99.90;;;;;;4106927;28;20042;-64
2021/10/02 00:58:06;;;;;;;55.47;16.33;;;9.90;99.90;;;;;;4107623;28;20046;-64
2021/10/02 01:00:09;;;;;;;51.93;17.47;;;9.90;99.90;;;;;;4106124;28;20082;-65
2021/10/02 01:02:32;;;;;;;46.00;15.30;;;10.00;99.90;;;;;;4107396;28;20094;-64
2021/10/02 01:04:38;;;;;;;46.53;15.90;;;10.10;99.90;;;;;;4106820;28;20046;-65
2021/10/02 01:07:06;;;;;;;51.23;16.03;;;10.10;99.90;;;;;;4107575;28;20085;-64
2021/10/02 01:09:12;;;;;;;40.27;16.33;;;10.10;99.90;;;;;;4118801;28;20773;-64
2021/10/02 01:11:17;;;;;;;42.57;15.80;;;10.10;99.90;;;;;;4123642;28;20038;-64
2021/10/02 01:13:46;;;;;;;38.77;14.67;;;10.10;99.90;;;;;;4123204;28;20034;-64
2021/10/02 01:15:50;;;;;;;44.93;14.60;;;10.10;99.90;;;;;;4123731;28;20108;-64
2021/10/02 01:18:01;;;;;;;33.30;14.60;;;10.10;99.90;;;;;;4122705;28;20415;-64
2021/10/02 01:20:04;;;;;;;35.77;13.57;;;10.10;99.90;;;;;;4123639;28;20093;-65
2021/10/02 01:22:24;;;;;;;33.50;14.27;;;10.00;99.90;;;;;;4121014;28;20038;-64
2021/10/02 01:25:02;;;;;;;28.00;12.67;;;10.00;99.90;;;;;;4123613;28;20152;-65
2021/10/02 01:27:27;;;;;;;37.00;13.90;;;10.00;99.90;;;;;;4122782;28;20034;-64
2021/10/02 01:29:33;;;;;;;39.83;15.73;;;9.90;99.90;;;;;;4123084;28;20125;-63
2021/10/02 01:31:42;;;;;;;39.27;13.50;;;9.90;99.90;;;;;;4122268;28;20031;-64
2021/10/02 01:33:50;;;;;;;36.50;15.50;;;9.90;99.90;;;;;;4123145;28;20458;-64
2021/10/02 01:36:03;;;;;;;48.87;16.50;;;9.90;99.90;;;;;;4122738;28;20109;-64
2021/10/02 01:47:27;;;;;;;58.53;15.10;;;10.00;99.90;;;;;;4124971;28;20097;-64
2021/10/02 01:49:31;;;;;;;48.20;15.40;;;10.00;99.90;;;;;;4123475;28;20092;-64
2021/10/02 01:51:32;;;;;;;43.23;14.07;;;9.90;99.90;;;;;;4122301;28;20458;-63
2021/10/02 01:53:34;;;;;;;35.27;14.47;;;9.90;99.90;;;;;;4123291;28;20105;-64
2021/10/02 01:55:37;;;;;;;33.23;13.90;;;9.90;99.90;;;;;;4123323;28;20038;-65
2021/10/02 01:57:48;;;;;;;32.47;13.23;;;9.90;99.90;;;;;;4122864;28;20034;-64
2021/10/02 01:59:51;;;;;;;25.23;12.27;;;9.90;99.90;;;;;;4122737;28;20030;-63
2021/10/02 02:01:53;;;;;;;35.77;13.57;;;9.90;99.90;;;;;;4122672;28;20042;-66
2021/10/02 02:03:56;;;;;;;41.53;14.93;;;9.90;99.90;;;;;;4122430;28;20469;-64
2021/10/02 02:06:00;;;;;;;36.70;13.17;;;9.90;99.90;;;;;;4122740;28;20035;-64
2021/10/02 02:08:05;;;;;;;31.70;13.80;;;9.90;99.90;;;;;;4121232;28;20442;-64
2021/10/02 02:10:08;;;;;;;38.37;13.67;;;9.90;99.90;;;;;;4122602;28;20039;-64
2021/10/02 02:12:15;;;;;;;33.60;14.50;;;9.90;99.90;;;;;;4125616;28;20466;-64
2021/10/02 02:14:17;;;;;;;34.30;14.73;;;9.80;99.90;;;;;;4125386;28;20097;-64
2021/10/02 02:16:18;;;;;;;38.80;15.70;;;9.80;99.90;;;;;;4125964;28;20038;-63
2021/10/02 02:18:24;;;;;;;37.17;15.63;;;9.90;99.90;;;;;;4124820;28;20454;-64
2021/10/02 02:20:34;;;;;;;34.80;13.90;;;9.80;99.90;;;;;;4126174;28;20807;-64
2021/10/02 02:22:36;;;;;;;34.88;14.88;;;9.90;99.90;;;;;;4125228;28;20077;-64
2021/10/02 02:24:37;;;;;;;35.27;15.23;;;9.90;99.90;;;;;;4126349;28;20126;-64
2021/10/02 02:26:40;;;;;;;36.10;15.67;;;9.90;99.90;;;;;;4125413;28;20101;-64
2021/10/02 02:28:42;;;;;;;38.90;15.50;;;9.90;99.90;;;;;;4126166;28;20041;-64
2021/10/02 02:30:44;;;;;;;33.13;15.17;;;9.90;99.90;;;;;;4124870;28;20531;-64
2021/10/02 02:32:46;;;;;;;34.40;14.23;;;9.90;99.90;;;;;;4125814;28;20557;-65
2021/10/02 02:34:47;;;;;;;32.23;13.50;;;9.90;99.90;;;;;;4124909;28;21051;-63
2021/10/02 02:36:48;;;;;;;32.47;14.73;;;9.80;99.90;;;;;;4125656;28;20043;-64
2021/10/02 02:38:49;;;;;;;28.93;12.77;;;9.90;99.90;;;;;;4125088;28;20883;-64
2021/10/02 02:40:51;;;;;;;34.03;13.40;;;9.90;99.90;;;;;;4125507;28;20056;-64
2021/10/02 02:42:52;;;;;;;27.70;13.73;;;9.90;99.90;;;;;;4125219;28;20065;-64
2021/10/02 02:44:53;;;;;;;30.93;14.40;;;9.90;99.90;;;;;;4125044;28;20151;-63
2021/10/02 02:47:00;;;;;;;28.27;13.07;;;9.90;99.90;;;;;;4125611;28;20557;-64
2021/10/02 02:49:26;;;;;;;29.63;13.93;;;9.90;99.90;;;;;;4124903;28;20034;-64
2021/10/02 02:51:36;;;;;;;31.13;13.83;;;9.90;99.90;;;;;;4124899;28;20682;-64
2021/10/02 02:54:14;;;;;;;26.73;12.82;;;9.80;99.90;;;;;;4123956;28;20038;-64
2021/10/02 02:56:21;;;;;;;32.40;14.80;;;9.80;99.90;;;;;;4125066;28;20034;-64
2021/10/02 02:58:25;;;;;;;33.70;15.30;;;9.70;99.90;;;;;;4125080;28;20034;-63
2021/10/02 03:00:26;;;;;;;30.70;15.10;;;9.60;99.90;;;;;;4124706;28;20022;-64
2021/10/02 03:02:28;;;;;;;29.43;15.07;;;9.50;99.90;;;;;;4124764;28;20971;-64
2021/10/02 03:04:33;;;;;;;42.40;17.70;;;9.30;99.90;;;;;;4124726;28;20116;-63
2021/10/02 03:06:36;;;;;;;31.07;14.87;;;9.30;99.90;;;;;;4124650;28;20089;-64
2021/10/02 03:08:38;;;;;;;29.67;15.47;;;9.20;99.90;;;;;;4125667;28;20076;-64
2021/10/02 03:10:45;;;;;;;30.53;15.70;;;9.10;99.90;;;;;;4124674;28;20462;-64
2021/10/02 03:12:48;;;;;;;32.13;15.60;;;9.10;99.90;;;;;;4123759;28;20057;-64
2021/10/02 03:14:51;;;;;;;31.43;15.17;;;9.00;99.90;;;;;;4124434;28;20022;-64
2021/10/02 03:16:54;;;;;;;37.67;15.53;;;9.00;99.90;;;;;;4124593;28;20038;-64
2021/10/02 03:19:02;;;;;;;32.23;15.30;;;8.90;99.90;;;;;;4124184;28;20494;-62
2021/10/02 03:21:04;;;;;;;30.23;14.63;;;8.90;99.90;;;;;;4125252;28;20071;-64
2021/10/02 03:23:06;;;;;;;34.60;16.20;;;8.90;99.90;;;;;;4123429;28;20101;-64
2021/10/02 03:25:09;;;;;;;36.20;16.87;;;8.80;99.90;;;;;;4125079;28;20045;-64
2021/10/02 03:27:11;;;;;;;32.27;16.53;;;8.80;99.90;;;;;;4124044;28;20426;-65
2021/10/02 03:29:14;;;;;;;33.33;15.47;;;8.80;99.90;;;;;;4124859;28;20076;-63
2021/10/02 03:31:19;;;;;;;39.30;16.23;;;8.70;99.90;;;;;;4124295;28;20092;-64
2021/10/02 03:33:22;;;;;;;44.53;17.10;;;8.70;99.90;;;;;;4124845;28;20092;-64
2021/10/02 03:35:24;;;;;;;41.43;16.90;;;8.60;99.90;;;;;;4124352;28;20491;-64
2021/10/02 03:37:27;;;;;;;34.53;17.23;;;8.60;99.90;;;;;;4124616;28;20947;-64
2021/10/02 03:39:28;;;;;;;29.17;15.67;;;8.60;99.90;;;;;;4124185;28;20664;-64
2021/10/02 03:41:29;;;;;;;32.73;15.73;;;8.60;99.90;;;;;;4124124;28;20038;-64
2021/10/02 03:43:33;;;;;;;30.07;14.10;;;8.60;99.90;;;;;;4124206;28;20030;-64
2021/10/02 03:45:38;;;;;;;25.83;14.57;;;8.50;99.90;;;;;;4122880;28;20487;-64
2021/10/02 03:47:39;;;;;;;27.83;13.03;;;8.50;99.90;;;;;;4124195;28;20917;-63
2021/10/02 03:49:41;;;;;;;29.90;11.73;;;8.30;99.90;;;;;;4122428;28;20026;-64
2021/10/02 03:51:46;;;;;;;50.80;13.27;;;8.20;99.90;;;;;;4124193;28;20458;-64
2021/10/02 03:53:47;;;;;;;26.37;11.93;;;8.10;99.90;;;;;;4123993;28;20109;-64
2021/10/02 03:55:48;;;;;;;30.60;11.00;;;8.00;99.90;;;;;;4124451;28;20022;-64
2021/10/02 03:57:49;;;;;;;26.00;12.77;;;8.00;99.90;;;;;;4123566;28;20169;-63
2021/10/02 03:59:50;;;;;;;29.80;12.83;;;7.90;99.90;;;;;;4124287;28;20034;-63
2021/10/02 04:01:52;;;;;;;25.40;12.83;;;7.80;99.90;;;;;;4122193;28;20034;-65
2021/10/02 04:03:53;;;;;;;22.33;11.40;;;7.80;99.90;;;;;;4122506;28;20042;-64
2021/10/02 04:05:54;;;;;;;26.77;13.47;;;7.80;99.90;;;;;;4123129;28;20109;-65
2021/10/02 04:07:57;;;;;;;24.63;13.27;;;7.80;99.90;;;;;;4124043;28;20038;-64
2021/10/02 04:09:58;;;;;;;21.10;12.27;;;7.80;99.90;;;;;;4123493;28;20897;-65
2021/10/02 04:11:59;;;;;;;26.93;13.60;;;7.70;99.90;;;;;;4123240;28;20038;-64
2021/10/02 04:14:02;;;;;;;25.97;14.20;;;7.80;99.90;;;;;;4123526;28;20589;-64
2021/10/02 04:16:04;;;;;;;28.43;13.63;;;7.80;99.90;;;;;;4123024;28;20109;-64
2021/10/02 04:18:05;;;;;;;23.10;12.83;;;7.70;99.90;;;;;;4123529;28;20034;-64
2021/10/02 04:20:07;;;;;;;28.73;13.97;;;7.70;99.90;;;;;;4123266;28;20034;-65
2021/10/02 04:22:08;;;;;;;25.17;13.43;;;7.70;99.90;;;;;;4123699;28;20073;-65
2021/10/02 04:24:09;;;;;;;23.60;13.17;;;7.70;99.90;;;;;;4123782;28;20553;-64
2021/10/02 04:26:11;;;;;;;31.20;14.23;;;7.70;99.90;;;;;;4123791;28;20034;-64
2021/10/02 04:28:12;;;;;;;26.63;12.23;;;7.70;99.90;;;;;;4122977;28;20430;-64
2021/10/02 04:30:13;;;;;;;23.17;12.87;;;7.70;99.90;;;;;;4124178;28;20026;-65
2021/10/02 04:32:14;;;;;;;29.30;13.33;;;7.70;99.90;;;;;;4123420;28;20803;-64
2021/10/02 04:34:15;;;;;;;19.73;11.67;;;7.70;99.90;;;;;;4123814;28;20038;-64
2021/10/02 04:36:16;;;;;;;17.30;10.80;;;7.70;99.90;;;;;;4122625;28;20541;-64
2021/10/02 04:38:17;;;;;;;21.77;11.57;;;7.60;99.90;;;;;;4123850;28;20093;-64
2021/10/02 04:40:18;;;;;;;16.97;10.23;;;7.60;99.90;;;;;;4122690;28;20530;-63
2021/10/02 04:42:19;;;;;;;18.07;10.90;;;7.60;99.90;;;;;;4123722;28;20798;-64
2021/10/02 04:44:21;;;;;;;16.73;10.13;;;7.60;99.90;;;;;;4123262;28;20088;-64
2021/10/02 04:46:22;;;;;;;20.70;12.27;;;7.50;99.90;;;;;;4123381;28;20050;-63
2021/10/02 04:48:24;;;;;;;20.53;10.53;;;7.60;99.90;;;;;;4123764;28;20035;-65
2021/10/02 04:50:25;;;;;;;18.67;10.33;;;7.60;99.90;;;;;;4123338;28;20088;-65
2021/10/02 04:52:26;;;;;;;21.87;11.90;;;7.60;99.90;;;;;;4123019;28;20770;-64
2021/10/02 04:54:27;;;;;;;23.57;11.10;;;7.60;99.90;;;;;;4123403;28;20105;-64
2021/10/02 04:56:29;;;;;;;21.07;13.13;;;7.60;99.90;;;;;;4123826;28;20031;-63
2021/10/02 04:58:30;;;;;;;21.43;12.03;;;7.60;99.90;;;;;;4122862;28;20023;-63
2021/10/02 05:00:31;;;;;;;21.77;12.30;;;7.60;99.90;;;;;;4123987;28;20491;-63
2021/10/02 05:02:32;;;;;;;26.83;12.63;;;7.60;99.90;;;;;;4122527;28;20034;-63
2021/10/02 05:04:33;;;;;;;23.77;11.57;;;7.60;99.90;;;;;;4123550;28;20046;-63
2021/10/02 05:06:34;;;;;;;29.83;14.17;;;7.60;99.90;;;;;;4122931;28;20034;-63
2021/10/02 05:08:36;;;;;;;32.83;14.43;;;7.60;99.90;;;;;;4123502;28;20089;-63
2021/10/02 05:10:38;;;;;;;35.83;13.90;;;7.60;99.90;;;;;;4122861;28;20503;-64
2021/10/02 05:12:40;;;;;;;53.33;17.13;;;7.60;99.90;;;;;;4123315;28;20797;-64
2021/10/02 05:14:41;;;;;;;61.40;16.87;;;7.60;99.90;;;;;;4122814;28;20046;-63
2021/10/02 05:16:42;;;;;;;63.23;16.00;;;7.50;99.90;;;;;;4123348;28;20031;-63
2021/10/02 05:18:43;;;;;;;72.80;15.97;;;7.50;99.90;;;;;;4123651;28;20026;-64
2021/10/02 05:20:45;;;;;;;67.97;18.53;;;7.40;99.90;;;;;;4122954;28;20085;-63
2021/10/02 05:22:46;;;;;;;78.03;22.37;;;7.40;99.90;;;;;;4122981;28;20038;-63
2021/10/02 05:24:47;;;;;;;63.63;18.80;;;7.50;99.90;;;;;;4120781;28;20109;-64
2021/10/02 05:26:48;;;;;;;50.70;17.93;;;7.50;99.90;;;;;;4122788;28;20034;-63
2021/10/02 05:28:49;;;;;;;54.97;16.97;;;7.50;99.90;;;;;;4122227;28;20426;-64
2021/10/02 05:30:51;;;;;;;42.90;14.83;;;7.70;99.90;;;;;;4123858;28;20095;-64
2021/10/02 05:32:53;;;;;;;35.80;14.27;;;7.70;99.90;;;;;;4122051;28;20030;-63
2021/10/02 05:34:54;;;;;;;29.53;11.63;;;7.80;99.90;;;;;;4123538;28;20133;-63
2021/10/02 05:36:56;;;;;;;30.43;11.50;;;7.90;99.90;;;;;;4122152;28;20081;-64
2021/10/02 05:38:57;;;;;;;23.10;12.67;;;7.90;99.90;;;;;;4122397;28;20054;-64
2021/10/02 05:40:58;;;;;;;24.00;11.43;;;8.00;99.90;;;;;;4122743;28;20554;-63
2021/10/02 05:43:02;;;;;;;24.73;11.70;;;8.00;99.90;;;;;;4123251;28;20019;-64
2021/10/02 05:45:04;;;;;;;28.10;13.30;;;8.10;99.90;;;;;;4122670;28;20593;-65
2021/10/02 05:47:05;;;;;;;30.03;12.47;;;8.20;99.90;;;;;;4124850;28;20030;-64
2021/10/02 05:49:06;;;;;;;25.13;12.00;;;8.40;99.90;;;;;;4125500;28;20045;-64
2021/10/02 05:51:08;;;;;;;25.97;12.73;;;8.40;99.90;;;;;;4125026;28;20034;-64
2021/10/02 05:53:09;;;;;;;23.67;11.63;;;8.50;99.90;;;;;;4125085;28;20042;-64
2021/10/02 05:55:11;;;;;;;29.07;13.00;;;8.70;99.90;;;;;;4125738;28;20030;-64
2021/10/02 05:57:12;;;;;;;23.77;13.00;;;8.70;99.90;;;;;;4126478;28;20076;-65
2021/10/02 05:59:13;;;;;;;23.80;12.73;;;8.80;99.90;;;;;;4124829;28;20085;-64
2021/10/02 06:01:14;;;;;;;24.70;12.37;;;8.90;99.90;;;;;;4125801;28;20042;-65
2021/10/02 06:03:15;;;;;;;21.30;11.20;;;9.20;99.90;;;;;;4125083;28;20062;-64
2021/10/02 06:05:16;;;;;;;23.57;11.30;;;9.60;99.90;;;;;;4125753;28;20112;-64
2021/10/02 06:07:17;;;;;;;18.83;10.40;;;10.00;99.90;;;;;;4122768;28;20108;-63
2021/10/02 06:09:19;;;;;;;16.80;10.17;;;10.40;99.90;;;;;;4125627;28;20100;-64
2021/10/02 06:11:20;;;;;;;18.83;9.57;;;10.80;99.90;;;;;;4124434;28;20058;-64
2021/10/02 06:13:24;;;;;;;14.90;8.93;;;11.10;99.90;;;;;;4125336;28;20038;-65
2021/10/02 06:15:25;;;;;;;12.97;8.10;;;11.00;99.90;;;;;;4124832;28;20054;-64
2021/10/02 06:17:27;;;;;;;14.77;8.50;;;11.40;99.90;;;;;;4123961;28;20104;-65
2021/10/02 06:19:28;;;;;;;16.10;8.50;;;11.80;99.90;;;;;;4124650;28;20045;-64
2021/10/02 06:21:29;;;;;;;11.80;7.40;;;12.10;99.90;;;;;;4125109;28;20046;-64
2021/10/02 06:23:30;;;;;;;13.63;7.70;;;12.30;99.90;;;;;;4124878;28;20097;-63
2021/10/02 06:25:32;;;;;;;14.23;6.67;;;12.50;99.90;;;;;;4124570;28;20113;-63
2021/10/02 06:27:33;;;;;;;8.60;6.40;;;12.60;99.90;;;;;;4128946;28;20030;-64
2021/10/02 06:29:35;;;;;;;12.97;7.47;;;12.80;99.90;;;;;;4137143;28;20073;-63
2021/10/02 06:31:37;;;;;;;10.53;6.27;;;13.10;99.90;;;;;;4136944;28;20027;-64
2021/10/02 06:33:38;;;;;;;11.17;7.53;;;13.30;99.90;;;;;;4123991;28;20050;-63
2021/10/02 06:35:39;;;;;;;9.77;6.40;;;13.40;99.90;;;;;;4125414;28;20092;-66
2021/10/02 06:37:43;;;;;;;13.63;7.27;;;13.30;99.90;;;;;;4123870;28;20042;-65
2021/10/02 06:39:44;;;;;;;12.67;6.83;;;13.40;99.90;;;;;;4125636;28;20096;-65
2021/10/02 06:41:46;;;;;;;10.87;5.93;;;13.40;99.90;;;;;;4124692;28;21047;-64
2021/10/02 06:43:49;;;;;;;14.30;6.63;;;13.30;99.90;;;;;;4124001;28;20084;-65
2021/10/02 06:45:50;;;;;;;12.50;6.57;;;13.30;99.90;;;;;;4138760;28;20073;-66
2021/10/02 06:47:51;;;;;;;17.73;7.20;;;13.20;99.90;;;;;;4125341;28;20545;-65
2021/10/02 06:49:57;;;;;;;15.40;6.90;;;13.30;99.90;;;;;;4124842;28;20080;-66
2021/10/02 06:51:58;;;;;;;13.67;7.47;;;13.30;99.90;;;;;;4115531;28;20117;-68
2021/10/02 06:53:59;;;;;;;14.10;7.20;;;13.10;99.90;;;;;;4121815;28;20105;-63
2021/10/02 06:56:00;;;;;;;14.90;7.90;;;13.10;99.90;;;;;;4125423;28;20062;-64
2021/10/02 06:58:02;;;;;;;14.63;7.10;;;13.00;99.90;;;;;;4123785;28;20104;-62
2021/10/02 07:00:04;;;;;;;14.23;7.50;;;13.20;99.90;;;;;;4124511;28;20512;-63
2021/10/02 07:02:06;;;;;;;12.43;7.27;;;13.30;99.90;;;;;;4124506;28;20450;-63
2021/10/02 07:04:08;;;;;;;15.27;8.27;;;13.40;99.90;;;;;;4123835;28;20046;-62
2021/10/02 07:06:09;;;;;;;14.53;9.83;;;13.20;99.90;;;;;;4124488;28;20164;-63
2021/10/02 07:08:10;;;;;;;17.47;9.93;;;13.30;99.90;;;;;;4123512;28;20034;-64
2021/10/02 07:10:12;;;;;;;21.23;14.97;;;13.40;99.90;;;;;;4125142;28;20042;-66
2021/10/02 07:12:13;;;;;;;23.97;14.73;;;13.40;99.90;;;;;;4124402;28;20951;-64
2021/10/02 07:14:15;;;;;;;20.03;11.47;;;13.40;99.90;;;;;;4122880;28;20038;-67
2021/10/02 07:16:16;;;;;;;18.00;10.13;;;13.20;99.90;;;;;;4108000;28;20042;-66
2021/10/02 07:18:17;;;;;;;15.20;8.43;;;13.30;99.90;;;;;;4108960;28;20085;-69
2021/10/02 07:20:18;;;;;;;14.57;7.30;;;13.40;99.90;;;;;;4122772;28;20105;-65
2021/10/02 07:22:19;;;;;;;18.43;8.40;;;13.60;99.90;;;;;;4124212;28;20618;-71
2021/10/02 07:24:20;;;;;;;14.73;8.07;;;13.70;99.90;;;;;;4124137;28;20534;-70
2021/10/02 07:26:21;;;;;;;15.53;8.50;;;13.60;99.90;;;;;;4124037;28;20050;-71
2021/10/02 07:28:23;;;;;;;23.03;13.70;;;13.60;99.90;;;;;;4124354;28;20042;-67
2021/10/02 07:30:25;;;;;;;19.27;9.10;;;13.60;99.90;;;;;;4123722;28;20038;-70
2021/10/02 07:32:27;;;;;;;12.17;6.83;;;13.70;99.90;;;;;;4124363;28;20446;-68
2021/10/02 07:34:28;;;;;;;12.07;7.20;;;13.90;99.90;;;;;;4123670;28;20423;-67
2021/10/02 07:36:29;;;;;;;13.97;6.87;;;14.10;99.90;;;;;;4124626;28;20077;-67
2021/10/02 07:38:30;;;;;;;13.27;6.53;;;13.90;99.90;;;;;;4124030;28;20084;-66
2021/10/02 07:40:32;;;;;;;10.27;5.83;;;13.70;99.90;;;;;;4124386;28;20042;-69
2021/10/02 07:42:35;;;;;;;9.03;5.90;;;13.70;99.90;;;;;;4122698;28;20495;-67
2021/10/02 07:44:37;;;;;;;16.53;5.60;;;13.70;99.90;;;;;;4123545;28;20027;-66
2021/10/02 07:46:48;;;;;;;8.60;5.53;;;14.00;99.90;;;;;;4122785;28;20109;-65
2021/10/02 07:48:52;;;;;;;7.70;5.33;;;14.00;99.90;;;;;;4124095;28;20072;-64
2021/10/02 07:50:57;;;;;;;10.57;5.30;;;14.00;99.90;;;;;;4123728;28;20085;-64
2021/10/02 07:52:59;;;;;;;12.03;5.20;;;13.90;99.90;;;;;;4124203;28;20551;-65
2021/10/02 07:55:04;;;;;;;11.13;5.50;;;14.30;99.90;;;;;;4123099;28;20501;-64
2021/10/02 07:57:05;;;;;;;7.10;4.80;;;14.30;99.90;;;;;;4123634;28;20038;-65
2021/10/02 07:59:07;;;;;;;10.30;5.03;;;14.40;99.90;;;;;;4123276;28;20384;-64
2021/10/02 08:01:08;;;;;;;11.90;5.70;;;14.40;99.90;;;;;;4123603;28;20057;-64
2021/10/02 08:03:09;;;;;;;12.43;4.90;;;14.20;99.90;;;;;;4123084;28;20100;-65
2021/10/02 08:05:11;;;;;;;11.30;5.07;;;14.10;99.90;;;;;;4123295;28;20030;-65
2021/10/02 08:07:14;;;;;;;10.13;5.93;;;14.00;99.90;;;;;;4123714;28;20084;-64
2021/10/02 08:09:15;;;;;;;7.57;5.90;;;14.00;99.90;;;;;;4122737;28;20084;-66
2021/10/02 08:11:17;;;;;;;10.07;5.20;;;14.30;99.90;;;;;;4123322;28;20093;-67
2021/10/02 08:13:18;;;;;;;12.60;6.07;;;14.50;99.90;;;;;;4123079;28;20144;-66
2021/10/02 08:15:21;;;;;;;10.23;5.93;;;14.50;99.90;;;;;;4123663;28;20042;-68
2021/10/02 08:17:26;;;;;;;11.97;6.10;;;14.40;99.90;;;;;;4122192;28;20109;-65
2021/10/02 08:19:31;;;;;;;9.13;5.73;;;14.40;99.90;;;;;;4123232;28;21394;-66
2021/10/02 08:21:33;;;;;;;10.33;6.10;;;14.70;99.90;;;;;;4122212;28;20026;-67
2021/10/02 08:23:38;;;;;;;9.82;5.47;;;14.90;99.90;;;;;;4123362;28;20030;-66
2021/10/02 08:25:46;;;;;;;16.08;5.97;;;15.30;99.90;;;;;;4123218;28;20050;-65
2021/10/02 08:27:48;;;;;;;9.15;5.25;;;15.70;99.90;;;;;;4123487;28;20764;-68
2021/10/02 08:29:50;;;;;;;12.07;5.32;;;16.00;99.90;;;;;;4122278;28;20081;-66
2021/10/02 08:31:51;;;;;;;10.55;4.97;;;16.10;99.90;;;;;;4123165;28;20034;-66
2021/10/02 08:33:52;;;;;;;9.85;5.15;;;16.00;99.90;;;;;;4123294;28;20104;-67
2021/10/02 08:35:54;;;;;;;7.20;4.63;;;16.20;99.90;;;;;;4123014;28;20054;-67
2021/10/02 08:37:55;;;;;;;12.65;4.97;;;16.10;99.90;;;;;;4122410;28;20414;-66
2021/10/02 08:39:56;;;;;;;9.10;4.15;;;15.60;99.90;;;;;;4121808;28;20058;-67
2021/10/02 08:41:58;;;;;;;7.55;4.57;;;15.60;99.90;;;;;;4122728;28;20042;-67
2021/10/02 08:44:01;;;;;;;10.18;5.07;;;15.80;99.90;;;;;;4122506;28;20038;-67
2021/10/02 08:46:08;;;;;;;6.65;4.50;;;15.80;99.90;;;;;;4123348;28;20042;-66
2021/10/02 08:48:14;;;;;;;5.38;3.33;;;15.70;99.70;;;;;;4122667;28;20042;-66
2021/10/02 08:50:18;;;;;;;9.27;4.25;;;15.50;98.70;;;;;;4122479;28;20035;-66
2021/10/02 08:52:23;;;;;;;8.15;3.47;;;15.40;98.90;;;;;;4122408;28;20034;-66
2021/10/02 08:54:25;;;;;;;7.38;3.90;;;15.40;98.80;;;;;;4123300;28;20046;-67
2021/10/02 08:56:27;;;;;;;6.38;4.15;;;15.40;98.60;;;;;;4122379;28;20042;-66
2021/10/02 08:58:29;;;;;;;10.43;4.38;;;15.50;98.70;;;;;;4120913;28;20085;-66
2021/10/02 09:00:31;;;;;;;9.57;4.13;;;15.80;98.70;;;;;;4118849;28;20038;-66
2021/10/02 09:02:32;;;;;;;9.07;4.10;;;15.90;98.50;;;;;;4119425;28;20038;-67
2021/10/02 09:04:34;;;;;;;12.63;4.60;;;16.00;98.10;;;;;;4116805;28;20043;-67
2021/10/02 09:06:35;;;;;;;12.55;4.65;;;16.10;97.70;;;;;;4117079;28;20460;-64
2021/10/02 09:08:36;;;;;;;7.65;4.05;;;16.10;97.60;;;;;;4116881;28;20042;-66
2021/10/02 09:10:39;;;;;;;9.38;4.32;;;16.00;96.40;;;;;;4120161;28;20092;-65
2021/10/02 09:12:42;;;;;;;6.72;4.45;;;16.00;97.10;;;;;;4118860;28;20507;-64
2021/10/02 09:14:44;;;;;;;9.68;4.13;;;16.00;97.00;;;;;;4117900;28;20034;-66
2021/10/02 09:16:45;;;;;;;10.05;5.30;;;16.00;96.80;;;;;;4118256;28;20038;-65
2021/10/02 09:18:47;;;;;;;6.55;3.63;;;16.20;96.80;;;;;;4118234;28;20042;-66
2021/10/02 09:21:01;;;;;;;7.88;4.45;;;16.20;96.60;;;;;;4117503;28;20050;-65
2021/10/02 09:23:05;;;;;;;9.38;3.75;;;16.10;96.00;;;;;;4120297;28;20100;-65
2021/10/02 09:25:09;;;;;;;7.88;4.18;;;16.20;96.30;;;;;;4122162;28;20034;-65
2021/10/02 09:27:20;;;;;;;10.70;4.28;;;16.10;96.00;;;;;;4120956;28;20050;-66
2021/10/02 09:29:39;;;;;;;5.63;3.67;;;16.00;95.30;;;;;;4120892;28;20038;-62
2021/10/02 09:31:41;;;;;;;10.55;4.25;;;15.90;95.20;;;;;;4121025;28;20050;-66
2021/10/02 09:33:46;;;;;;;8.48;3.88;;;15.80;95.40;;;;;;4123599;28;20451;-69
2021/10/02 09:35:49;;;;;;;14.60;3.95;;;15.80;95.90;;;;;;4125586;28;20435;-69
2021/10/02 09:37:54;;;;;;;6.43;3.83;;;15.80;95.90;;;;;;4125993;28;20446;-66
2021/10/02 09:39:59;;;;;;;7.32;4.35;;;15.90;95.40;;;;;;4125395;28;20456;-67
2021/10/02 09:42:01;;;;;;;8.55;3.80;;;15.90;95.60;;;;;;4126419;28;20971;-69
2021/10/02 09:44:03;;;;;;;8.10;3.75;;;15.80;95.40;;;;;;4125112;28;20043;-67
2021/10/02 09:46:04;;;;;;;7.82;4.28;;;15.80;95.40;;;;;;4126017;28;20097;-70
2021/10/02 09:48:09;;;;;;;7.07;3.88;;;15.90;95.40;;;;;;4124415;28;20077;-66
2021/10/02 09:50:14;;;;;;;9.38;4.53;;;15.90;94.80;;;;;;4125499;28;20088;-68
2021/10/02 09:52:40;;;;;;;8.40;5.20;;;15.80;95.00;;;;;;4124495;28;20813;-68
2021/10/02 09:54:44;;;;;;;8.15;3.95;;;16.00;94.60;;;;;;4122750;28;20797;-67
2021/10/02 09:57:13;;;;;;;7.78;3.95;;;16.10;95.30;;;;;;4124626;28;20038;-66
2021/10/02 09:59:23;;;;;;;11.13;4.28;;;16.30;94.20;;;;;;4124911;28;20100;-71
2021/10/02 10:01:27;;;;;;;6.93;4.25;;;16.20;93.90;;;;;;4124760;28;20042;-69
2021/10/02 10:03:43;;;;;;;7.82;4.75;;;16.20;94.50;;;;;;4125282;28;20030;-67
2021/10/02 10:05:52;;;;;;;7.95;3.42;;;16.10;93.90;;;;;;4123985;28;20047;-68
2021/10/02 10:07:56;;;;;;;9.45;4.45;;;16.20;94.10;;;;;;4125020;28;20089;-67
2021/10/02 10:10:18;;;;;;;5.85;4.03;;;16.10;94.00;;;;;;4124808;28;20096;-67
2021/10/02 10:12:27;;;;;;;9.10;4.32;;;16.20;93.30;;;;;;4124866;28;20561;-65
2021/10/02 10:14:29;;;;;;;8.60;4.40;;;16.30;93.90;;;;;;4124258;28;20038;-69
2021/10/02 10:16:37;;;;;;;10.23;3.50;;;16.30;93.90;;;;;;4125711;28;20026;-66
2021/10/02 10:18:39;;;;;;;7.05;3.53;;;16.40;93.10;;;;;;4124641;28;20038;-68
2021/10/02 10:21:03;;;;;;;8.60;3.47;;;16.40;93.10;;;;;;4125570;28;20030;-66
2021/10/02 10:23:06;;;;;;;11.05;3.60;;;16.30;92.40;;;;;;4121759;28;20035;-67
2021/10/02 10:25:11;;;;;;;8.00;3.55;;;16.30;92.90;;;;;;4125094;28;20414;-66
2021/10/02 10:27:12;;;;;;;9.05;3.72;;;16.50;92.80;;;;;;4124730;28;20042;-68
2021/10/02 10:29:15;;;;;;;6.13;3.60;;;16.40;92.40;;;;;;4125318;28;20088;-66
2021/10/02 10:31:25;;;;;;;4.80;3.08;;;16.40;92.60;;;;;;4124218;28;20030;-66
2021/10/02 10:33:27;;;;;;;5.28;2.63;;;16.50;91.10;;;;;;4124956;28;20100;-68
2021/10/02 10:35:56;;;;;;;7.47;3.72;;;16.50;91.70;;;;;;4124490;28;20042;-67
2021/10/02 10:37:57;;;;;;;5.85;3.35;;;16.50;90.80;;;;;;4124855;28;20085;-67
2021/10/02 10:39:59;;;;;;;5.93;3.08;;;16.50;91.60;;;;;;4124348;28;20054;-66
2021/10/02 10:42:04;;;;;;;9.48;3.30;;;16.60;91.70;;;;;;4125122;28;20105;-66
2021/10/02 10:44:06;;;;;;;8.95;3.22;;;16.60;91.40;;;;;;4124639;28;20034;-68
2021/10/02 10:46:09;;;;;;;7.78;4.00;;;16.50;91.90;;;;;;4124619;28;20046;-67
2021/10/02 10:48:11;;;;;;;7.65;3.25;;;16.50;91.70;;;;;;4124900;28;20081;-66
2021/10/02 10:50:13;;;;;;;5.20;3.00;;;16.50;91.60;;;;;;4124832;28;20046;-66
2021/10/02 10:52:15;;;;;;;4.57;3.30;;;16.50;91.90;;;;;;4124465;28;20874;-66
2021/10/02 10:54:18;;;;;;;8.38;3.30;;;16.50;91.90;;;;;;4124464;28;20101;-69
2021/10/02 10:56:44;;;;;;;4.75;2.67;;;16.50;91.80;;;;;;4124550;28;20030;-60
2021/10/02 10:58:58;;;;;;;9.73;3.10;;;16.50;90.70;;;;;;4124884;28;20034;-68
2021/10/02 11:01:02;;;;;;;5.90;3.33;;;16.40;91.30;;;;;;4125406;28;20090;-63
2021/10/02 11:03:04;;;;;;;7.55;3.35;;;16.50;91.40;;;;;;4124358;28;20046;-64
2021/10/02 11:05:06;;;;;;;10.75;3.75;;;16.60;91.70;;;;;;4121545;28;20026;-67
2021/10/02 11:07:13;;;;;;;8.23;2.85;;;16.80;91.70;;;;;;4108121;28;20047;-63
2021/10/02 11:09:14;;;;;;;6.30;2.95;;;16.80;91.60;;;;;;4108673;28;20023;-68
2021/10/02 11:11:16;;;;;;;7.32;3.33;;;16.90;91.40;;;;;;4119074;28;20046;-65
2021/10/02 11:13:29;;;;;;;7.68;3.55;;;16.90;91.50;;;;;;4124460;28;20039;-64
2021/10/02 11:15:30;;;;;;;5.38;3.22;;;17.00;90.70;;;;;;4124326;28;20126;-63
2021/10/02 11:17:31;;;;;;;5.03;3.08;;;17.00;91.00;;;;;;4123267;28;20042;-64
2021/10/02 11:19:38;;;;;;;6.55;3.10;;;16.90;90.70;;;;;;4124228;28;20400;-64
2021/10/02 11:22:05;;;;;;;6.55;2.85;;;16.90;90.10;;;;;;4124816;28;20438;-65
2021/10/02 11:24:14;;;;;;;5.10;3.13;;;16.80;89.90;;;;;;4106315;28;20046;-66
2021/10/02 11:26:24;;;;;;;5.95;3.55;;;16.90;90.10;;;;;;4097439;28;20220;-65
2021/10/02 11:28:25;;;;;;;19.20;7.25;;;16.90;89.70;;;;;;4121254;28;20069;-67
2021/10/02 11:30:26;;;;;;;10.32;3.38;;;16.80;90.20;;;;;;4118222;28;20097;-66